createdAt,value
2019-06-20T00:01:01.620Z,27.20
2019-06-20T00:03:32.238Z,27.20
2019-06-20T00:06:01.889Z,27.20
2019-06-20T00:08:31.522Z,27.20
2019-06-20T00:11:01.313Z,27.20
2019-06-20T00:13:31.040Z,27.20
2019-06-20T00:16:00.789Z,27.20
2019-06-20T00:18:30.330Z,27.20
2019-06-20T00:20:59.924Z,27.20
2019-06-20T00:23:29.518Z,27.20
2019-06-20T00:25:59.102Z,27.20
2019-06-20T00:28:28.609Z,27.20
2019-06-20T00:30:58.216Z,27.20
2019-06-20T00:33:27.741Z,27.20
2019-06-20T00:35:58.393Z,27.20
2019-06-20T00:38:27.955Z,27.10
2019-06-20T00:40:57.523Z,27.10
2019-06-20T00:43:27.065Z,27.00
2019-06-20T00:45:56.638Z,27.00
2019-06-20T00:48:26.187Z,26.90
2019-06-20T00:50:55.812Z,26.90
2019-06-20T00:53:25.371Z,26.90
2019-06-20T00:55:55.009Z,26.90
2019-06-20T00:58:24.627Z,26.80
2019-06-20T01:00:54.196Z,26.80
2019-06-20T01:03:23.726Z,26.80
2019-06-20T01:05:53.350Z,26.80
2019-06-20T01:08:22.954Z,26.70
2019-06-20T01:10:54.132Z,26.70
2019-06-20T01:13:33.006Z,26.60
2019-06-20T01:15:56.382Z,26.60
2019-06-20T01:18:25.927Z,26.60
2019-06-20T01:20:55.501Z,26.50
2019-06-20T01:23:25.245Z,26.40
2019-06-20T01:25:54.945Z,26.30
2019-06-20T01:28:24.617Z,26.20
2019-06-20T01:30:54.229Z,26.20
2019-06-20T01:33:23.774Z,26.10
2019-06-20T01:35:53.335Z,26.00
2019-06-20T01:38:22.880Z,26.00
2019-06-20T01:40:52.459Z,25.90
2019-06-20T01:43:22.029Z,25.80
2019-06-20T01:45:51.597Z,25.70
2019-06-20T01:48:21.240Z,25.70
2019-06-20T01:50:50.874Z,25.60
2019-06-20T01:53:20.413Z,25.50
2019-06-20T01:55:50.025Z,25.40
2019-06-20T01:58:20.022Z,25.30
2019-06-20T02:00:51.314Z,25.20
2019-06-20T02:03:21.414Z,25.20
2019-06-20T02:05:51.088Z,25.10
2019-06-20T02:08:20.836Z,25.00
2019-06-20T02:10:50.454Z,25.00
2019-06-20T02:13:20.012Z,24.90
2019-06-20T02:15:49.626Z,24.90
2019-06-20T02:18:19.178Z,25.00
2019-06-20T02:20:57.521Z,25.00
2019-06-20T02:23:27.385Z,25.00
2019-06-20T02:25:56.926Z,25.00
2019-06-20T02:28:26.511Z,25.10
2019-06-20T02:30:56.820Z,25.10
2019-06-20T02:33:26.377Z,25.10
2019-06-20T02:35:55.905Z,25.10
2019-06-20T02:38:25.729Z,25.00
2019-06-20T02:40:55.340Z,25.00
2019-06-20T02:43:24.896Z,25.00
2019-06-20T02:45:54.484Z,25.00
2019-06-20T02:48:24.113Z,25.00
2019-06-20T02:50:53.634Z,25.00
2019-06-20T02:53:23.362Z,25.10
2019-06-20T02:55:53.035Z,25.10
2019-06-20T02:58:22.668Z,25.00
2019-06-20T03:01:01.708Z,25.00
2019-06-20T03:03:31.270Z,25.00
2019-06-20T03:06:00.874Z,25.00
2019-06-20T03:08:30.621Z,25.00
2019-06-20T03:11:00.234Z,24.90
2019-06-20T03:13:29.946Z,24.90
2019-06-20T03:15:59.658Z,24.90
2019-06-20T03:18:29.230Z,24.80
2019-06-20T03:20:58.910Z,24.80
2019-06-20T03:23:28.437Z,24.80
2019-06-20T03:25:58.060Z,24.80
2019-06-20T03:28:27.653Z,24.80
2019-06-20T03:30:57.487Z,24.80
2019-06-20T03:33:27.277Z,24.80
2019-06-20T03:35:58.452Z,24.70
2019-06-20T03:38:28.049Z,24.80
2019-06-20T03:40:57.579Z,24.80
2019-06-20T03:43:27.153Z,24.80
2019-06-20T03:45:56.689Z,24.70
2019-06-20T03:48:26.252Z,24.80
2019-06-20T03:50:55.776Z,24.70
2019-06-20T03:53:25.348Z,24.70
2019-06-20T03:55:54.970Z,24.70
2019-06-20T03:58:24.608Z,24.70
2019-06-20T04:00:54.204Z,24.70
2019-06-20T04:03:23.782Z,24.80
2019-06-20T04:05:53.461Z,24.70
2019-06-20T04:08:23.025Z,24.80
2019-06-20T04:10:52.563Z,24.80
2019-06-20T04:13:22.134Z,24.80
2019-06-20T04:15:51.696Z,24.80
2019-06-20T04:18:21.342Z,24.90
2019-06-20T04:20:50.892Z,24.90
2019-06-20T04:23:20.449Z,24.90
2019-06-20T04:25:50.076Z,24.90
2019-06-20T04:28:19.720Z,25.00
2019-06-20T04:30:49.322Z,25.00
2019-06-20T04:33:18.886Z,25.10
2019-06-20T04:35:48.426Z,25.10
2019-06-20T04:38:18.003Z,25.20
2019-06-20T04:40:47.633Z,25.20
2019-06-20T04:43:17.187Z,25.20
2019-06-20T04:45:52.339Z,25.20
2019-06-20T04:48:21.877Z,25.20
2019-06-20T04:50:51.905Z,25.30
2019-06-20T04:53:21.523Z,25.30
2019-06-20T04:55:51.142Z,25.30
2019-06-20T04:58:20.699Z,25.30
2019-06-20T05:00:50.333Z,25.40
2019-06-20T05:03:20.017Z,25.40
2019-06-20T05:05:49.745Z,25.50
2019-06-20T05:08:19.290Z,25.50
2019-06-20T05:10:49.162Z,25.60
2019-06-20T05:13:20.425Z,25.60
2019-06-20T05:15:52.940Z,25.70
2019-06-20T05:18:21.242Z,25.80
2019-06-20T05:20:50.885Z,25.80
2019-06-20T05:23:20.446Z,25.90
2019-06-20T05:25:50.024Z,26.00
2019-06-20T05:28:19.606Z,26.00
2019-06-20T05:30:49.238Z,26.10
2019-06-20T05:33:18.832Z,26.20
2019-06-20T05:35:48.397Z,26.20
2019-06-20T05:38:17.957Z,26.30
2019-06-20T05:40:47.876Z,26.30
2019-06-20T05:43:17.921Z,26.40
2019-06-20T05:45:48.888Z,26.40
2019-06-20T05:48:19.830Z,26.50
2019-06-20T05:50:49.449Z,26.60
2019-06-20T05:53:19.119Z,26.60
2019-06-20T05:55:49.346Z,26.70
2019-06-20T05:58:19.537Z,26.70
2019-06-20T06:00:49.450Z,26.70
2019-06-20T06:03:20.346Z,26.70
2019-06-20T06:05:49.968Z,26.60
2019-06-20T06:08:19.576Z,26.60
2019-06-20T06:10:49.303Z,26.60
2019-06-20T06:13:19.183Z,26.50
2019-06-20T06:15:49.155Z,26.40
2019-06-20T06:18:18.904Z,26.40
2019-06-20T06:20:48.850Z,26.30
2019-06-20T06:23:18.599Z,26.30
2019-06-20T06:25:48.354Z,26.30
2019-06-20T06:28:17.966Z,26.40
2019-06-20T06:30:47.805Z,26.40
2019-06-20T06:33:17.576Z,26.50
2019-06-20T06:35:47.172Z,26.60
2019-06-20T06:38:22.083Z,26.70
2019-06-20T06:40:47.986Z,26.80
2019-06-20T06:43:17.606Z,26.80
2019-06-20T06:45:59.348Z,26.80
2019-06-20T06:48:29.011Z,26.70
2019-06-20T06:50:58.582Z,26.70
2019-06-20T06:53:28.227Z,26.70
2019-06-20T06:55:57.793Z,26.60
2019-06-20T06:58:27.400Z,26.60
2019-06-20T07:00:57.006Z,26.50
2019-06-20T07:03:26.528Z,26.50
2019-06-20T07:05:56.115Z,26.40
2019-06-20T07:08:25.765Z,26.40
2019-06-20T07:10:55.359Z,26.30
2019-06-20T07:13:24.897Z,26.30
2019-06-20T07:15:55.537Z,26.20
2019-06-20T07:18:25.079Z,26.20
2019-06-20T07:20:54.645Z,26.20
2019-06-20T07:23:24.477Z,26.10
2019-06-20T07:25:54.044Z,26.10
2019-06-20T07:28:23.686Z,26.00
2019-06-20T07:30:53.255Z,26.00
2019-06-20T07:33:22.922Z,26.00
2019-06-20T07:35:52.664Z,26.00
2019-06-20T07:38:22.542Z,26.10
2019-06-20T07:40:52.342Z,26.10
2019-06-20T07:43:22.030Z,26.10
2019-06-20T07:46:02.036Z,26.20
2019-06-20T07:48:22.754Z,26.20
2019-06-20T07:50:52.418Z,26.30
2019-06-20T07:53:21.951Z,26.30
2019-06-20T07:55:51.670Z,26.30
2019-06-20T07:58:21.995Z,26.30
2019-06-20T08:00:51.676Z,26.30
2019-06-20T08:03:21.280Z,26.30
2019-06-20T08:05:50.974Z,26.40
2019-06-20T08:08:20.600Z,26.40
2019-06-20T08:10:50.509Z,26.40
2019-06-20T08:13:20.105Z,26.40
2019-06-20T08:15:49.641Z,26.40
2019-06-20T08:18:19.221Z,26.40
2019-06-20T08:20:48.742Z,26.50
2019-06-20T08:23:18.683Z,26.50
2019-06-20T08:25:48.188Z,26.50
2019-06-20T08:28:17.758Z,26.50
2019-06-20T08:30:47.288Z,26.60
2019-06-20T08:33:16.954Z,26.60
2019-06-20T08:35:46.499Z,26.70
2019-06-20T08:38:16.079Z,26.70
2019-06-20T08:40:45.653Z,26.70
2019-06-20T08:43:15.222Z,26.70
2019-06-20T08:45:45.260Z,26.70
2019-06-20T08:48:15.128Z,26.70
2019-06-20T08:50:44.741Z,26.80
2019-06-20T08:53:14.418Z,26.80
2019-06-20T08:55:44.105Z,26.80
2019-06-20T08:58:13.767Z,26.80
2019-06-20T09:00:43.819Z,26.90
2019-06-20T09:03:13.521Z,26.90
2019-06-20T09:05:43.148Z,26.90
2019-06-20T09:08:12.754Z,26.80
2019-06-20T09:10:42.690Z,26.80
2019-06-20T09:13:13.010Z,26.80
2019-06-20T09:15:42.978Z,26.90
2019-06-20T09:18:12.617Z,26.90
2019-06-20T09:20:42.330Z,27.00
2019-06-20T09:23:11.890Z,27.00
2019-06-20T09:25:41.730Z,27.00
2019-06-20T09:28:11.424Z,27.10
2019-06-20T09:30:42.374Z,27.20
2019-06-20T09:33:11.943Z,27.20
2019-06-20T09:35:41.555Z,27.30
2019-06-20T09:38:11.195Z,27.30
2019-06-20T09:40:40.825Z,27.40
2019-06-20T09:43:10.474Z,27.50
2019-06-20T09:45:40.122Z,27.60
2019-06-20T09:48:09.742Z,27.60
2019-06-20T09:50:39.400Z,27.60
2019-06-20T09:53:08.991Z,27.60
2019-06-20T09:55:38.612Z,27.50
2019-06-20T09:58:08.407Z,27.50
2019-06-20T10:00:39.025Z,27.50
2019-06-20T10:03:08.979Z,27.40
2019-06-20T10:05:38.563Z,27.40
2019-06-20T10:08:08.250Z,27.30
2019-06-20T10:10:39.335Z,27.30
2019-06-20T10:13:08.913Z,27.30
2019-06-20T10:15:38.571Z,27.40
2019-06-20T10:18:08.366Z,27.50
2019-06-20T10:20:39.026Z,27.50
2019-06-20T10:23:09.971Z,27.70
2019-06-20T10:25:39.655Z,27.90
2019-06-20T10:28:09.372Z,28.10
2019-06-20T10:30:38.891Z,28.30
2019-06-20T10:33:08.610Z,28.50
2019-06-20T10:35:38.289Z,28.70
2019-06-20T10:38:07.860Z,28.90
2019-06-20T10:40:37.534Z,29.10
2019-06-20T10:43:07.195Z,29.30
2019-06-20T10:45:37.264Z,29.50
2019-06-20T10:48:06.976Z,29.70
2019-06-20T10:50:36.603Z,29.90
2019-06-20T10:53:06.434Z,30.10
2019-06-20T10:55:37.132Z,30.30
2019-06-20T10:58:06.849Z,30.40
2019-06-20T11:00:36.484Z,30.50
2019-06-20T11:03:06.437Z,30.60
2019-06-20T11:05:37.070Z,30.80
2019-06-20T11:08:06.751Z,30.90
2019-06-20T11:10:36.383Z,31.00
2019-06-20T11:13:06.203Z,31.10
2019-06-20T11:15:36.041Z,31.30
2019-06-20T11:18:05.940Z,31.40
2019-06-20T11:20:35.512Z,31.40
2019-06-20T11:23:05.124Z,31.50
2019-06-20T11:25:34.672Z,31.50
2019-06-20T11:28:04.216Z,31.60
2019-06-20T11:30:48.113Z,31.70
2019-06-20T11:33:05.845Z,31.70
2019-06-20T11:35:36.594Z,31.90
2019-06-20T11:38:06.647Z,32.00
2019-06-20T11:40:36.930Z,32.10
2019-06-20T11:43:07.568Z,32.20
2019-06-20T11:45:37.653Z,32.20
2019-06-20T11:48:08.672Z,32.30
2019-06-20T11:50:38.285Z,32.40
2019-06-20T11:53:08.821Z,32.40
2019-06-20T11:55:38.504Z,32.40
2019-06-20T11:58:08.095Z,32.40
2019-06-20T12:00:37.673Z,32.40
2019-06-20T12:03:07.254Z,32.40
2019-06-20T12:05:38.443Z,32.40
2019-06-20T12:08:08.225Z,32.40
2019-06-20T12:10:38.048Z,32.30
2019-06-20T12:13:08.769Z,32.30
2019-06-20T12:15:39.393Z,32.40
2019-06-20T12:18:09.535Z,32.40
2019-06-20T12:20:39.646Z,32.50
2019-06-20T12:23:10.258Z,32.50
2019-06-20T12:25:41.039Z,32.50
2019-06-20T12:28:10.971Z,32.50
2019-06-20T12:30:41.612Z,32.40
2019-06-20T12:33:11.277Z,32.40
2019-06-20T12:35:42.344Z,32.30
2019-06-20T12:38:15.056Z,32.20
2019-06-20T12:40:44.070Z,32.10
2019-06-20T12:43:13.798Z,32.00
2019-06-20T12:45:43.354Z,31.90
2019-06-20T12:48:12.890Z,31.80
2019-06-20T12:50:43.054Z,31.60
2019-06-20T12:53:12.679Z,31.50
2019-06-20T12:55:42.498Z,31.40
2019-06-20T12:58:12.247Z,31.30
2019-06-20T13:00:43.599Z,31.20
2019-06-20T13:03:13.097Z,31.10
2019-06-20T13:05:44.842Z,31.00
2019-06-20T13:08:14.657Z,30.80
2019-06-20T13:10:46.109Z,30.80
2019-06-20T13:13:15.698Z,30.60
2019-06-20T13:15:45.265Z,30.60
2019-06-20T13:18:14.806Z,30.50
2019-06-20T13:20:44.372Z,30.50
2019-06-20T13:23:14.903Z,30.40
2019-06-20T13:25:44.636Z,30.40
2019-06-20T13:28:15.163Z,30.30
2019-06-20T13:30:49.806Z,30.30
2019-06-20T13:33:16.044Z,30.20
2019-06-20T13:35:46.674Z,30.20
2019-06-20T13:38:16.333Z,30.20
2019-06-20T13:40:47.157Z,30.20
2019-06-20T13:43:16.920Z,30.10
2019-06-20T13:45:47.295Z,30.10
2019-06-20T13:48:16.963Z,30.10
2019-06-20T13:50:47.450Z,30.10
2019-06-20T13:53:17.223Z,30.10
2019-06-20T13:55:47.729Z,30.20
2019-06-20T13:58:17.457Z,30.20
2019-06-20T14:00:47.965Z,30.20
2019-06-20T14:03:17.637Z,30.20
2019-06-20T14:05:47.279Z,30.20
2019-06-20T14:08:16.921Z,30.20
2019-06-20T14:10:47.639Z,30.20
2019-06-20T14:13:19.499Z,30.20
2019-06-20T14:15:48.685Z,30.20
2019-06-20T14:18:18.256Z,30.30
2019-06-20T14:20:48.513Z,30.30
2019-06-20T14:23:18.237Z,30.30
2019-06-20T14:25:48.772Z,30.30
2019-06-20T14:28:18.540Z,30.30
2019-06-20T14:30:48.418Z,30.30
2019-06-20T14:33:18.029Z,30.30
2019-06-20T14:35:49.270Z,30.30
2019-06-20T14:38:18.747Z,30.30
2019-06-20T14:40:52.429Z,30.40
2019-06-20T14:43:22.235Z,30.40
2019-06-20T14:45:51.780Z,30.40
2019-06-20T14:48:22.659Z,30.40
2019-06-20T14:50:53.425Z,30.50
2019-06-20T14:53:25.418Z,30.50
2019-06-20T14:55:55.717Z,30.50
2019-06-20T14:58:25.287Z,30.60
2019-06-20T15:00:55.271Z,30.60
2019-06-20T15:03:24.916Z,30.70
2019-06-20T15:05:54.696Z,30.70
2019-06-20T15:08:25.548Z,30.70
2019-06-20T15:10:55.288Z,30.80
2019-06-20T15:13:24.921Z,30.80
2019-06-20T15:15:55.666Z,30.90
2019-06-20T15:18:25.327Z,30.90
2019-06-20T15:20:57.843Z,30.90
2019-06-20T15:23:26.188Z,30.90
2019-06-20T15:25:56.189Z,30.90
2019-06-20T15:28:26.110Z,30.90
2019-06-20T15:30:57.182Z,30.90
2019-06-20T15:33:27.002Z,30.90
2019-06-20T15:35:57.974Z,30.90
2019-06-20T15:38:28.032Z,30.90
2019-06-20T15:40:57.751Z,30.90
2019-06-20T15:43:27.561Z,30.80
2019-06-20T15:45:58.352Z,30.80
2019-06-20T15:48:28.093Z,30.90
2019-06-20T15:50:57.752Z,30.80
2019-06-20T15:53:27.440Z,30.80
2019-06-20T15:55:57.066Z,30.80
2019-06-20T15:58:26.675Z,30.70
2019-06-20T16:00:56.184Z,30.70
2019-06-20T16:03:25.757Z,30.60
2019-06-20T16:05:55.356Z,30.70
2019-06-20T16:08:24.928Z,30.70
2019-06-20T16:10:54.541Z,30.60
2019-06-20T16:13:24.109Z,30.60
2019-06-20T16:15:53.642Z,30.60
2019-06-20T16:18:23.195Z,30.50
2019-06-20T16:20:52.774Z,30.50
2019-06-20T16:23:22.325Z,30.50
2019-06-20T16:25:51.876Z,30.40
2019-06-20T16:28:21.506Z,30.40
2019-06-20T16:30:51.044Z,30.30
2019-06-20T16:33:25.098Z,30.30
2019-06-20T16:35:51.901Z,30.30
2019-06-20T16:38:21.637Z,30.20
2019-06-20T16:40:51.275Z,30.20
2019-06-20T16:43:20.829Z,30.10
2019-06-20T16:45:50.445Z,30.10
2019-06-20T16:48:20.005Z,30.10
2019-06-20T16:50:49.594Z,30.10
2019-06-20T16:53:19.183Z,30.00
2019-06-20T16:55:49.075Z,30.00
2019-06-20T16:58:18.628Z,29.90
2019-06-20T17:00:48.256Z,29.90
2019-06-20T17:03:17.888Z,29.90
2019-06-20T17:05:47.509Z,29.90
2019-06-20T17:08:17.067Z,29.80
2019-06-20T17:10:46.624Z,29.80
2019-06-20T17:13:16.276Z,29.80
2019-06-20T17:15:46.095Z,29.70
2019-06-20T17:18:15.810Z,29.70
2019-06-20T17:20:45.551Z,29.70
2019-06-20T17:23:15.157Z,29.70
2019-06-20T17:25:44.941Z,29.60
2019-06-20T17:28:14.549Z,29.60
2019-06-20T17:30:44.199Z,29.60
2019-06-20T17:33:13.825Z,29.60
2019-06-20T17:35:43.432Z,29.60
2019-06-20T17:38:13.304Z,29.60
2019-06-20T17:40:42.972Z,29.60
2019-06-20T17:43:12.522Z,29.50
2019-06-20T17:45:42.082Z,29.60
2019-06-20T17:48:11.627Z,29.50
2019-06-20T17:50:41.260Z,29.50
2019-06-20T17:53:10.854Z,29.50
2019-06-20T17:55:40.482Z,29.40
2019-06-20T17:58:10.024Z,29.30
2019-06-20T18:00:39.970Z,29.30
2019-06-20T18:03:09.540Z,29.20
2019-06-20T18:05:39.283Z,29.10
2019-06-20T18:08:15.219Z,29.00
2019-06-20T18:10:40.449Z,28.90
2019-06-20T18:13:10.007Z,28.80
2019-06-20T18:15:40.732Z,28.70
2019-06-20T18:18:10.334Z,28.60
2019-06-20T18:20:39.911Z,28.50
2019-06-20T18:23:09.551Z,28.40
2019-06-20T18:25:39.107Z,28.30
2019-06-20T18:28:08.719Z,28.20
2019-06-20T18:30:43.443Z,28.20
2019-06-20T18:33:12.194Z,28.10
2019-06-20T18:35:41.935Z,28.00
2019-06-20T18:38:12.445Z,28.00
2019-06-20T18:40:42.076Z,27.90
2019-06-20T18:43:11.746Z,27.80
2019-06-20T18:45:41.379Z,27.70
2019-06-20T18:48:11.061Z,27.70
2019-06-20T18:50:40.706Z,27.60
2019-06-20T18:53:10.234Z,27.50
2019-06-20T18:55:39.875Z,27.50
2019-06-20T18:58:09.395Z,27.40
2019-06-20T19:00:39.018Z,27.40
2019-06-20T19:03:08.634Z,27.30
2019-06-20T19:05:38.215Z,27.30
2019-06-20T19:08:07.828Z,27.30
2019-06-20T19:10:37.404Z,27.20
2019-06-20T19:13:07.024Z,27.10
2019-06-20T19:15:36.662Z,27.10
2019-06-20T19:18:06.428Z,27.00
2019-06-20T19:20:36.107Z,27.00
2019-06-20T19:23:05.652Z,27.00
2019-06-20T19:25:36.591Z,26.90
2019-06-20T19:28:06.157Z,26.90
2019-06-20T19:30:47.596Z,26.90
2019-06-20T19:33:17.861Z,26.80
2019-06-20T19:35:47.785Z,26.80
2019-06-20T19:38:17.339Z,26.80
2019-06-20T19:40:48.989Z,26.70
2019-06-20T19:43:18.562Z,26.60
2019-06-20T19:45:48.234Z,26.50
2019-06-20T19:48:18.106Z,26.40
2019-06-20T19:50:48.758Z,26.30
2019-06-20T19:53:18.402Z,26.20
2019-06-20T19:55:48.474Z,26.10
2019-06-20T19:58:18.095Z,26.00
2019-06-20T20:00:47.711Z,25.90
2019-06-20T20:03:18.430Z,25.90
2019-06-20T20:05:48.112Z,25.80
2019-06-20T20:08:18.108Z,25.80
2019-06-20T20:10:49.018Z,25.90
2019-06-20T20:13:19.000Z,25.80
2019-06-20T20:15:48.732Z,25.90
2019-06-20T20:18:18.538Z,25.90
2019-06-20T20:20:48.368Z,25.90
2019-06-20T20:23:18.595Z,25.90
2019-06-20T20:25:48.532Z,25.90
2019-06-20T20:28:18.288Z,25.90
2019-06-20T20:30:48.220Z,25.90
2019-06-20T20:33:17.842Z,25.90
2019-06-20T20:35:47.476Z,25.90
2019-06-20T20:38:17.645Z,25.90
2019-06-20T20:40:47.414Z,25.80
2019-06-20T20:43:16.945Z,25.80
2019-06-20T20:45:46.893Z,25.80
2019-06-20T20:48:16.523Z,25.80
2019-06-20T20:50:47.583Z,25.80
2019-06-20T20:53:18.412Z,25.80
2019-06-20T20:55:48.273Z,25.80
2019-06-20T20:58:19.304Z,25.80
2019-06-20T21:00:57.710Z,25.80
2019-06-20T21:03:27.455Z,25.70
2019-06-20T21:05:57.154Z,25.70
2019-06-20T21:08:26.822Z,25.60
2019-06-20T21:10:57.456Z,25.60
2019-06-20T21:13:27.061Z,25.60
2019-06-20T21:15:56.739Z,25.60
2019-06-20T21:18:26.310Z,25.60
2019-06-20T21:20:55.923Z,25.60
2019-06-20T21:23:25.521Z,25.60
2019-06-20T21:25:55.070Z,25.40
2019-06-20T21:28:24.637Z,25.20
2019-06-20T21:30:54.164Z,24.90
2019-06-20T21:33:23.714Z,24.60
2019-06-20T21:36:07.528Z,24.30
2019-06-20T21:38:24.623Z,24.10
2019-06-20T21:40:55.323Z,23.80
2019-06-20T21:43:24.895Z,23.60
2019-06-20T21:45:54.460Z,23.40
2019-06-20T21:48:24.031Z,23.30
2019-06-20T21:50:53.645Z,23.20
2019-06-20T21:53:23.200Z,23.10
2019-06-20T21:55:52.743Z,23.00
2019-06-20T21:58:22.340Z,22.90
2019-06-20T22:00:54.995Z,22.90
2019-06-20T22:03:25.285Z,22.90
2019-06-20T22:05:54.821Z,22.90
2019-06-20T22:08:24.384Z,22.90
2019-06-20T22:10:53.928Z,22.90
2019-06-20T22:13:23.647Z,22.90
2019-06-20T22:15:53.180Z,22.90
2019-06-20T22:18:22.887Z,22.90
2019-06-20T22:20:53.500Z,22.90
2019-06-20T22:23:23.160Z,22.90
2019-06-20T22:25:52.789Z,22.90
2019-06-20T22:28:22.415Z,23.00
2019-06-20T22:30:55.828Z,23.00
2019-06-20T22:33:25.418Z,23.00
2019-06-20T22:35:54.989Z,23.00
2019-06-20T22:38:24.559Z,23.10
2019-06-20T22:40:54.129Z,23.10
2019-06-20T22:43:23.742Z,23.20
2019-06-20T22:45:53.329Z,23.20
2019-06-20T22:48:22.835Z,23.20
2019-06-20T22:50:52.396Z,23.30
2019-06-20T22:53:21.934Z,23.30
2019-06-20T22:55:51.547Z,23.30
2019-06-20T22:58:21.138Z,23.30
2019-06-20T23:00:50.756Z,23.40
2019-06-20T23:03:20.355Z,23.30
2019-06-20T23:05:49.918Z,23.40
2019-06-20T23:08:19.474Z,23.40
2019-06-20T23:10:49.036Z,23.40
2019-06-20T23:13:18.550Z,23.40
2019-06-20T23:15:48.201Z,23.40
2019-06-20T23:18:18.005Z,23.40
2019-06-20T23:21:03.585Z,23.40
2019-06-20T23:23:18.854Z,23.40
2019-06-20T23:25:50.035Z,23.40
2019-06-20T23:28:19.570Z,23.40
2019-06-20T23:30:49.155Z,23.40
2019-06-20T23:33:18.765Z,23.40
2019-06-20T23:35:48.355Z,23.40
2019-06-20T23:38:17.903Z,23.40
2019-06-20T23:40:47.465Z,23.40
2019-06-20T23:43:16.999Z,23.40
2019-06-20T23:45:46.622Z,23.40
2019-06-20T23:48:16.157Z,23.40
2019-06-20T23:50:45.737Z,23.40
2019-06-20T23:53:16.907Z,23.30
2019-06-20T23:55:46.711Z,23.30
2019-06-20T23:58:16.279Z,23.20
